Check out our new BloomSky Weather System.

Active alerts


No alerts


Thunder radar  blitzortung!


Rain radar more information rain snow radar


Visit our other weather sites:

Template documentation
and downloads

And another site



Weather Underground History page Text

Daily Summary for January 9, 2018 Units:  English    Metric   Both
« Previous Day
Next Day »
Daily Weekly Monthly Yearly Custom
  High: Low: Average:
Temperature: TemperatureF °F 40.5 °F 45.2 °F
Dew Point: DewpointF °F 39.4 °F 44 °F
Humidity: Humidity % 89 % 95 %
Wind Speed: WindSpeedMPH mph 0.0 mph 0.6 mph
Wind Gust: WindSpeedGustMPH mph - -
Wind:- - SE
Pressure: PressureIn in 30.06 in -
Precipitation: 0.00 in    
Historical Graphs
 
 
Tabular Data for January 9, 2018
Time Temperature Dew Point Pressure Wind Wind Speed Wind Gust Humidity Rainfall Rate (Hourly)
TemperatureF °F DewpointF °F PressureIn in Calm     Humidity % HourlyPrecipIn in
00:00 43.5 °F 41.7 °F 30.14 in Calm     93 % 0.00 in
00:01 43.5 °F 41.7 °F 30.14 in Calm     93 % 0.00 in
00:02 43.5 °F 41.7 °F 30.14 in Calm     93 % 0.00 in
00:03 43.5 °F 41.7 °F 30.14 in Calm     93 % 0.00 in
00:05 43.3 °F 41.5 °F 30.14 in Calm     93 % 0.00 in
00:06 43.3 °F 41.5 °F 30.14 in Calm     93 % 0.00 in
00:07 43.3 °F 41.5 °F 30.14 in Calm     93 % 0.00 in
00:08 43.3 °F 41.5 °F 30.14 in Calm     93 % 0.00 in
00:10 43.3 °F 41.5 °F 30.14 in Calm     93 % 0.00 in
00:12 43.3 °F 41.7 °F 30.14 in Calm     94 % 0.00 in
00:15 43.2 °F 41.5 °F 30.14 in Calm     94 % 0.00 in
00:16 43.2 °F 41.5 °F 30.14 in Calm     94 % 0.00 in
00:17 43.2 °F 41.5 °F 30.14 in Calm     94 % 0.00 in
00:19 43.2 °F 41.5 °F 30.14 in Calm     94 % 0.00 in
00:20 43.2 °F 41.5 °F 30.14 in Calm     94 % 0.00 in
00:22 43.2 °F 41.5 °F 30.14 in Calm     94 % 0.00 in
00:23 43.2 °F 41.5 °F 30.14 in Calm     94 % 0.00 in
00:27 43.0 °F 41.4 °F 30.14 in Calm     94 % 0.00 in
00:28 43.0 °F 41.4 °F 30.14 in Calm     94 % 0.00 in
00:29 43.0 °F 41.4 °F 30.14 in Calm     94 % 0.00 in
00:30 43.0 °F 41.4 °F 30.14 in Calm     94 % 0.00 in
00:32 42.8 °F 41.2 °F 30.14 in Calm     94 % 0.00 in
00:34 42.6 °F 41.0 °F 30.14 in Calm     94 % 0.00 in
00:35 42.6 °F 41.0 °F 30.14 in Calm     94 % 0.00 in
00:38 42.6 °F 41.0 °F 30.14 in Calm     94 % 0.00 in
00:39 42.4 °F 40.8 °F 30.14 in Calm     94 % 0.00 in
00:40 42.6 °F 41.4 °F 30.14 in Calm     95 % 0.00 in
00:41 42.6 °F 41.4 °F 30.13 in Calm     95 % 0.00 in
00:43 42.6 °F 41.4 °F 30.14 in Calm     95 % 0.00 in
00:44 42.6 °F 41.4 °F 30.14 in Calm     95 % 0.00 in
00:46 42.6 °F 41.4 °F 30.14 in Calm     95 % 0.00 in
00:48 42.4 °F 41.2 °F 30.14 in Calm     95 % 0.00 in
00:50 42.4 °F 41.2 °F 30.13 in Calm     95 % 0.00 in
00:51 42.4 °F 41.2 °F 30.13 in Calm     95 % 0.00 in
00:52 42.4 °F 41.2 °F 30.13 in Calm     95 % 0.00 in
00:53 42.4 °F 41.2 °F 30.13 in Calm     95 % 0.00 in
00:54 42.4 °F 41.2 °F 30.13 in Calm     95 % 0.00 in
00:55 42.4 °F 41.2 °F 30.13 in Calm     95 % 0.00 in
00:56 42.6 °F 41.4 °F 30.13 in Calm     95 % 0.00 in
00:57 42.6 °F 41.4 °F 30.13 in Calm     95 % 0.00 in
00:58 42.6 °F 41.4 °F 30.13 in Calm     95 % 0.00 in
01:00 42.4 °F 41.2 °F 30.13 in Calm     95 % 0.00 in
01:01 42.4 °F 41.2 °F 30.13 in Calm     95 % 0.00 in
01:02 42.4 °F 41.2 °F 30.13 in Calm     95 % 0.00 in
01:04 42.3 °F 41.0 °F 30.13 in Calm     95 % 0.00 in
01:05 42.3 °F 40.6 °F 30.13 in Calm     94 % 0.00 in
01:06 42.3 °F 40.6 °F 30.13 in Calm     94 % 0.00 in
01:07 42.3 °F 40.6 °F 30.13 in Calm     94 % 0.00 in
01:10 42.1 °F 40.8 °F 30.13 in Calm     95 % 0.00 in
01:11 41.9 °F 40.3 °F 30.13 in Calm     94 % 0.00 in
01:12 41.7 °F 40.1 °F 30.13 in Calm     94 % 0.00 in
01:13 41.7 °F 40.1 °F 30.13 in Calm     94 % 0.00 in
01:14 41.7 °F 40.1 °F 30.12 in Calm     94 % 0.00 in
01:15 41.7 °F 40.1 °F 30.12 in Calm     94 % 0.00 in
01:19 41.4 °F 39.7 °F 30.12 in Calm     94 % 0.00 in
01:20 41.2 °F 39.6 °F 30.12 in Calm     94 % 0.00 in
01:21 41.2 °F 39.6 °F 30.12 in Calm     94 % 0.00 in
01:23 41.2 °F 39.6 °F 30.12 in Calm     94 % 0.00 in
01:24 41.2 °F 39.6 °F 30.12 in Calm     94 % 0.00 in
01:25 41.2 °F 39.9 °F 30.12 in Calm     95 % 0.00 in
01:26 41.4 °F 40.1 °F 30.12 in Calm     95 % 0.00 in
01:28 41.4 °F 40.1 °F 30.12 in Calm     95 % 0.00 in
01:29 41.5 °F 40.3 °F 30.12 in Calm     95 % 0.00 in
01:31 41.5 °F 40.3 °F 30.12 in Calm     95 % 0.00 in
01:33 41.5 °F 40.3 °F 30.12 in Calm     95 % 0.00 in
01:34 41.4 °F 40.1 °F 30.12 in Calm     95 % 0.00 in
01:35 41.4 °F 40.1 °F 30.12 in Calm     95 % 0.00 in
01:36 41.4 °F 40.1 °F 30.12 in Calm     95 % 0.00 in
01:38 41.4 °F 40.1 °F 30.12 in Calm     95 % 0.00 in
01:42 41.4 °F 40.1 °F 30.12 in Calm     95 % 0.00 in
01:43 41.4 °F 40.1 °F 30.12 in Calm     95 % 0.00 in
01:44 41.4 °F 40.1 °F 30.12 in Calm     95 % 0.00 in
01:45 41.4 °F 40.1 °F 30.12 in Calm     95 % 0.00 in
01:46 41.4 °F 40.1 °F 30.12 in Calm     95 % 0.00 in
01:47 41.4 °F 40.1 °F 30.12 in Calm     95 % 0.00 in
01:50 41.4 °F 40.1 °F 30.13 in Calm     95 % 0.00 in
01:52 41.4 °F 40.3 °F 30.13 in Calm     96 % 0.00 in
01:53 41.4 °F 40.3 °F 30.13 in Calm     96 % 0.00 in
01:54 41.4 °F 40.3 °F 30.13 in Calm     96 % 0.00 in
01:56 41.4 °F 40.3 °F 30.13 in Calm     96 % 0.00 in
01:57 41.4 °F 40.3 °F 30.13 in Calm     96 % 0.00 in
01:58 41.4 °F 40.3 °F 30.13 in Calm     96 % 0.00 in
02:00 41.4 °F 40.3 °F 30.13 in Calm     96 % 0.00 in
02:02 41.2 °F 40.1 °F 30.13 in Calm     96 % 0.00 in
02:05 41.2 °F 40.1 °F 30.13 in Calm     96 % 0.00 in
02:07 40.8 °F 39.6 °F 30.13 in Calm     95 % 0.00 in
02:08 40.8 °F 39.6 °F 30.13 in Calm     95 % 0.00 in
02:09 40.8 °F 39.6 °F 30.13 in Calm     95 % 0.00 in
02:11 40.8 °F 39.6 °F 30.13 in Calm     95 % 0.00 in
02:12 40.6 °F 39.4 °F 30.13 in Calm     95 % 0.00 in
02:17 40.8 °F 39.7 °F 30.13 in Calm     96 % 0.00 in
02:19 40.8 °F 39.7 °F 30.13 in Calm     96 % 0.00 in
02:20 40.8 °F 39.7 °F 30.13 in Calm     96 % 0.00 in
02:21 40.8 °F 39.7 °F 30.13 in Calm     96 % 0.00 in
02:22 40.8 °F 39.7 °F 30.13 in Calm     96 % 0.00 in
02:23 40.8 °F 39.7 °F 30.13 in Calm     96 % 0.00 in
02:24 40.8 °F 39.7 °F 30.13 in Calm     96 % 0.00 in
02:25 40.8 °F 39.7 °F 30.13 in Calm     96 % 0.00 in
02:26 40.8 °F 39.7 °F 30.13 in Calm     96 % 0.00 in
02:27 40.6 °F 39.6 °F 30.13 in Calm     96 % 0.00 in
02:30 40.6 °F 39.6 °F 30.13 in Calm     96 % 0.00 in
02:32 40.6 °F 39.6 °F 30.13 in Calm     96 % 0.00 in
02:33 40.6 °F 39.6 °F 30.13 in Calm     96 % 0.00 in
02:34 40.6 °F 39.6 °F 30.13 in Calm     96 % 0.00 in
02:35 40.6 °F 39.6 °F 30.13 in Calm     96 % 0.00 in
02:37 40.5 °F 39.4 °F 30.13 in Calm     96 % 0.00 in
02:38 40.5 °F 39.4 °F 30.13 in Calm     96 % 0.00 in
02:40 40.5 °F 39.4 °F 30.13 in Calm     96 % 0.00 in
02:41 40.5 °F 39.4 °F 30.13 in Calm     96 % 0.00 in
02:42 40.5 °F 39.4 °F 30.13 in Calm     96 % 0.00 in
02:44 40.5 °F 39.4 °F 30.13 in Calm     96 % 0.00 in
02:45 40.5 °F 39.4 °F 30.13 in Calm     96 % 0.00 in
02:46 40.5 °F 39.4 °F 30.13 in Calm     96 % 0.00 in
02:47 40.6 °F 39.6 °F 30.13 in Calm     96 % 0.00 in
02:48 40.6 °F 39.6 °F 30.13 in Calm     96 % 0.00 in
02:49 40.6 °F 39.6 °F 30.13 in Calm     96 % 0.00 in
02:51 40.8 °F 40.1 °F 30.13 in Calm     97 % 0.00 in
02:53 41.0 °F 40.3 °F 30.13 in Calm     97 % 0.00 in
02:54 41.0 °F 40.3 °F 30.13 in Calm     97 % 0.00 in
02:58 41.2 °F 40.1 °F 30.13 in Calm     96 % 0.00 in
02:59 41.0 °F 40.3 °F 30.13 in Calm     97 % 0.00 in
03:02 41.0 °F 40.3 °F 30.13 in Calm     97 % 0.00 in
03:03 41.0 °F 39.9 °F 30.13 in Calm     96 % 0.00 in
03:04 41.0 °F 39.9 °F 30.13 in Calm     96 % 0.00 in
03:07 41.0 °F 39.9 °F 30.13 in Calm     96 % 0.00 in
03:08 41.0 °F 39.9 °F 30.13 in Calm     96 % 0.00 in
03:09 41.0 °F 40.3 °F 30.13 in Calm     97 % 0.00 in
03:12 41.2 °F 40.5 °F 30.13 in Calm     97 % 0.00 in
03:13 41.2 °F 40.5 °F 30.13 in Calm     97 % 0.00 in
03:14 41.4 °F 40.6 °F 30.13 in Calm     97 % 0.00 in
03:16 41.4 °F 40.6 °F 30.14 in Calm     97 % 0.00 in
03:17 41.4 °F 40.6 °F 30.14 in Calm     97 % 0.00 in
03:18 41.4 °F 40.6 °F 30.13 in Calm     97 % 0.00 in
03:22 41.5 °F 40.8 °F 30.13 in Calm     97 % 0.00 in
03:23 41.5 °F 40.8 °F 30.13 in Calm     97 % 0.00 in
03:24 41.5 °F 40.8 °F 30.13 in Calm     97 % 0.00 in
03:25 41.5 °F 40.8 °F 30.13 in Calm     97 % 0.00 in
03:27 41.5 °F 40.8 °F 30.14 in Calm     97 % 0.00 in
03:28 41.5 °F 40.8 °F 30.14 in Calm     97 % 0.00 in
03:29 41.5 °F 40.8 °F 30.14 in Calm     97 % 0.00 in
03:30 41.5 °F 40.8 °F 30.14 in Calm     97 % 0.00 in
03:31 41.5 °F 40.8 °F 30.14 in Calm     97 % 0.00 in
03:32 41.5 °F 40.8 °F 30.14 in Calm     97 % 0.00 in
03:33 41.5 °F 40.8 °F 30.14 in Calm     97 % 0.00 in
03:34 41.5 °F 40.8 °F 30.13 in Calm     97 % 0.00 in
03:35 41.5 °F 40.8 °F 30.13 in Calm     97 % 0.00 in
03:37 41.5 °F 40.8 °F 30.14 in Calm     97 % 0.00 in
03:38 41.5 °F 40.8 °F 30.14 in Calm     97 % 0.00 in
03:39 41.5 °F 40.8 °F 30.14 in Calm     97 % 0.00 in
03:40 41.5 °F 40.8 °F 30.14 in Calm     97 % 0.00 in
03:43 41.7 °F 41.0 °F 30.14 in Calm     97 % 0.00 in
03:44 41.7 °F 41.0 °F 30.14 in Calm     97 % 0.00 in
03:47 42.1 °F 41.4 °F 30.14 in Calm   1.0 mph 97 % 0.00 in
03:48 42.3 °F 41.7 °F 30.14 in Calm   1.0 mph 98 % 0.00 in
03:54 42.3 °F 41.5 °F 30.14 in Calm   1.0 mph 97 % 0.00 in
03:58 42.3 °F 41.5 °F 30.13 in Calm   1.0 mph 97 % 0.00 in
03:59 42.3 °F 41.5 °F 30.13 in Calm   1.0 mph 97 % 0.00 in
04:00 42.3 °F 41.5 °F 30.13 in Calm   1.0 mph 97 % 0.00 in
04:01 42.3 °F 41.5 °F 30.13 in Calm     97 % 0.00 in
04:02 42.3 °F 41.5 °F 30.13 in Calm     97 % 0.00 in
04:03 42.1 °F 41.4 °F 30.13 in Calm     97 % 0.00 in
04:05 42.1 °F 41.4 °F 30.13 in Calm     97 % 0.00 in
04:06 42.1 °F 41.4 °F 30.13 in Calm     97 % 0.00 in
04:07 42.1 °F 41.4 °F 30.13 in Calm     97 % 0.00 in
04:08 42.1 °F 41.4 °F 30.13 in Calm     97 % 0.00 in
04:09 42.1 °F 41.4 °F 30.13 in Calm     97 % 0.00 in
04:10 42.1 °F 41.4 °F 30.13 in Calm     97 % 0.00 in
04:11 42.1 °F 41.4 °F 30.13 in Calm     97 % 0.00 in
04:12 42.1 °F 41.4 °F 30.13 in Calm     97 % 0.00 in
04:15 41.9 °F 41.2 °F 30.13 in Calm     97 % 0.00 in
04:16 41.9 °F 41.2 °F 30.13 in Calm     97 % 0.00 in
04:17 41.9 °F 41.2 °F 30.13 in Calm     97 % 0.00 in
04:20 41.7 °F 41.0 °F 30.13 in Calm     97 % 0.00 in
04:22 41.7 °F 41.0 °F 30.13 in Calm     97 % 0.00 in
04:24 41.9 °F 41.2 °F 30.13 in Calm     97 % 0.00 in
04:25 41.7 °F 41.0 °F 30.13 in Calm     97 % 0.00 in
04:26 41.9 °F 41.2 °F 30.13 in Calm     97 % 0.00 in
04:29 41.9 °F 41.2 °F 30.13 in Calm     97 % 0.00 in
04:30 41.9 °F 41.2 °F 30.13 in Calm     97 % 0.00 in
04:32 41.9 °F 41.2 °F 30.13 in Calm     97 % 0.00 in
04:35 41.9 °F 41.2 °F 30.13 in Calm     97 % 0.00 in
04:36 41.9 °F 41.2 °F 30.13 in Calm     97 % 0.00 in
04:37 41.9 °F 41.2 °F 30.13 in Calm     97 % 0.00 in
04:38 41.9 °F 41.2 °F 30.13 in Calm     97 % 0.00 in
04:42 41.9 °F 41.2 °F 30.13 in North 1.0 mph   97 % 0.00 in
04:44 41.9 °F 41.2 °F 30.13 in Calm     97 % 0.00 in
04:45 41.9 °F 41.2 °F 30.13 in Calm     97 % 0.00 in
04:46 41.9 °F 41.2 °F 30.13 in Calm   1.0 mph 97 % 0.00 in
04:47 41.9 °F 41.2 °F 30.13 in Calm   1.0 mph 97 % 0.00 in
04:48 41.9 °F 41.2 °F 30.13 in Calm   1.0 mph 97 % 0.00 in
04:50 41.9 °F 41.2 °F 30.13 in Calm   1.0 mph 97 % 0.00 in
04:51 41.9 °F 41.2 °F 30.13 in Calm   1.0 mph 97 % 0.00 in
04:52 41.9 °F 41.2 °F 30.13 in Calm   1.0 mph 97 % 0.00 in
04:53 41.9 °F 41.2 °F 30.13 in Calm   1.0 mph 97 % 0.00 in
04:54 41.9 °F 41.2 °F 30.13 in Calm   1.0 mph 97 % 0.00 in
04:55 41.9 °F 41.2 °F 30.13 in Calm   1.0 mph 97 % 0.00 in
04:56 41.9 °F 41.2 °F 30.13 in Calm   1.0 mph 97 % 0.00 in
04:59 41.7 °F 41.0 °F 30.13 in Calm   1.0 mph 97 % 0.00 in
05:00 41.7 °F 41.0 °F 30.13 in Calm   1.0 mph 97 % 0.00 in
05:01 41.7 °F 41.0 °F 30.13 in Calm   1.0 mph 97 % 0.00 in
05:02 41.7 °F 41.0 °F 30.13 in Calm   1.0 mph 97 % 0.00 in
05:07 41.7 °F 41.0 °F 30.13 in Calm   1.0 mph 97 % 0.00 in
05:10 41.7 °F 41.0 °F 30.13 in Calm   1.0 mph 97 % 0.00 in
05:12 41.7 °F 41.0 °F 30.13 in Calm   1.0 mph 97 % 0.00 in
05:14 41.7 °F 41.0 °F 30.13 in Calm   1.0 mph 97 % 0.00 in
05:15 41.7 °F 41.0 °F 30.13 in Calm   1.0 mph 97 % 0.00 in
05:16 41.7 °F 41.0 °F 30.13 in Calm   1.0 mph 97 % 0.00 in
05:17 41.7 °F 41.0 °F 30.13 in Calm   1.0 mph 97 % 0.00 in
05:18 41.5 °F 40.8 °F 30.13 in Calm   1.0 mph 97 % 0.00 in
05:19 41.5 °F 40.8 °F 30.13 in Calm   1.0 mph 97 % 0.00 in
05:20 41.5 °F 40.8 °F 30.13 in Calm   1.0 mph 97 % 0.00 in
05:21 41.5 °F 40.8 °F 30.13 in Calm   1.0 mph 97 % 0.00 in
05:22 41.5 °F 40.8 °F 30.13 in Calm   1.0 mph 97 % 0.00 in
05:23 41.5 °F 40.8 °F 30.13 in Calm   1.0 mph 97 % 0.00 in
05:24 41.5 °F 40.8 °F 30.13 in Calm   1.0 mph 97 % 0.00 in
05:26 41.5 °F 40.8 °F 30.13 in Calm   1.0 mph 97 % 0.00 in
05:27 41.5 °F 40.8 °F 30.12 in Calm   1.0 mph 97 % 0.00 in
05:28 41.5 °F 40.8 °F 30.12 in Calm   1.0 mph 97 % 0.00 in
05:29 41.5 °F 40.8 °F 30.12 in Calm   1.0 mph 97 % 0.00 in
05:35 41.5 °F 40.8 °F 30.13 in Calm   1.0 mph 97 % 0.00 in
05:36 41.5 °F 40.8 °F 30.13 in Calm   1.0 mph 97 % 0.00 in
05:37 41.5 °F 40.8 °F 30.13 in Calm   1.0 mph 97 % 0.00 in
05:38 41.5 °F 40.8 °F 30.13 in Calm   1.0 mph 97 % 0.00 in
05:41 41.5 °F 40.8 °F 30.12 in Calm   1.0 mph 97 % 0.00 in
05:42 41.5 °F 40.8 °F 30.12 in Calm   1.0 mph 97 % 0.00 in
05:43 41.5 °F 40.8 °F 30.12 in Calm   1.0 mph 97 % 0.00 in
05:44 41.5 °F 40.8 °F 30.12 in Calm   1.0 mph 97 % 0.00 in
05:45 41.7 °F 41.0 °F 30.12 in Calm   1.0 mph 97 % 0.00 in
05:46 41.7 °F 41.0 °F 30.13 in Calm   1.0 mph 97 % 0.00 in
05:47 41.7 °F 41.0 °F 30.12 in Calm   1.0 mph 97 % 0.00 in
05:48 41.7 °F 41.0 °F 30.12 in Calm   1.0 mph 97 % 0.00 in
05:49 41.7 °F 41.0 °F 30.13 in North 1.0 mph 1.0 mph 97 % 0.00 in
05:51 41.7 °F 41.2 °F 30.13 in Calm   1.0 mph 98 % 0.00 in
05:52 41.7 °F 41.2 °F 30.13 in Calm   1.0 mph 98 % 0.00 in
05:53 41.7 °F 41.2 °F 30.13 in Calm   1.0 mph 98 % 0.00 in
05:54 41.9 °F 41.4 °F 30.13 in Calm   1.0 mph 98 % 0.00 in
05:57 42.3 °F 41.7 °F 30.12 in Calm   1.0 mph 98 % 0.00 in
05:58 42.3 °F 41.7 °F 30.12 in Calm   1.0 mph 98 % 0.00 in
05:59 42.3 °F 41.7 °F 30.13 in Calm   1.0 mph 98 % 0.00 in
06:00 42.4 °F 41.9 °F 30.13 in Calm   1.0 mph 98 % 0.00 in
06:02 42.4 °F 41.9 °F 30.13 in Calm   1.0 mph 98 % 0.00 in
06:03 42.6 °F 42.1 °F 30.13 in Calm   1.0 mph 98 % 0.00 in
06:04 42.6 °F 42.1 °F 30.13 in Calm   1.0 mph 98 % 0.00 in
06:05 42.8 °F 42.3 °F 30.13 in Calm   1.0 mph 98 % 0.00 in
06:06 43.0 °F 42.4 °F 30.13 in Calm   1.0 mph 98 % 0.00 in
06:07 43.0 °F 42.4 °F 30.13 in NW 1.0 mph 1.0 mph 98 % 0.00 in
06:08 43.2 °F 42.6 °F 30.13 in Calm   1.0 mph 98 % 0.00 in
06:09 43.2 °F 42.6 °F 30.13 in NNW 1.0 mph 1.0 mph 98 % 0.00 in
06:10 43.2 °F 42.6 °F 30.13 in NNW 1.0 mph 1.0 mph 98 % 0.00 in
06:12 43.3 °F 42.8 °F 30.12 in North 1.0 mph 1.0 mph 98 % 0.00 in
06:14 43.5 °F 43.0 °F 30.13 in Calm   1.0 mph 98 % 0.00 in
06:15 43.5 °F 43.0 °F 30.13 in NNW 1.0 mph 2.0 mph 98 % 0.00 in
06:16 43.5 °F 43.0 °F 30.13 in Calm   2.0 mph 98 % 0.00 in
06:17 43.5 °F 43.0 °F 30.13 in Calm   2.0 mph 98 % 0.00 in
06:20 43.7 °F 43.2 °F 30.13 in NNW 1.0 mph 2.0 mph 98 % 0.00 in
06:22 43.9 °F 43.3 °F 30.13 in Calm   2.0 mph 98 % 0.00 in
06:24 43.9 °F 43.3 °F 30.13 in NNW 1.0 mph 2.0 mph 98 % 0.00 in
06:25 43.9 °F 43.3 °F 30.13 in Calm   2.0 mph 98 % 0.00 in
06:26 43.9 °F 43.3 °F 30.13 in Calm   2.0 mph 98 % 0.00 in
06:27 43.9 °F 43.3 °F 30.13 in NNW 1.0 mph 2.0 mph 98 % 0.00 in
06:28 44.1 °F 43.5 °F 30.13 in Calm   2.0 mph 98 % 0.00 in
06:29 44.1 °F 43.5 °F 30.13 in Calm   2.0 mph 98 % 0.00 in
06:30 44.1 °F 43.5 °F 30.13 in Calm   1.0 mph 98 % 0.00 in
06:32 44.1 °F 43.5 °F 30.13 in Calm   1.0 mph 98 % 0.00 in
06:33 44.2 °F 43.7 °F 30.13 in Calm   1.0 mph 98 % 0.00 in
06:37 44.4 °F 43.9 °F 30.13 in Calm   1.0 mph 98 % 0.00 in
06:40 44.4 °F 43.9 °F 30.13 in Calm   1.0 mph 98 % 0.00 in
06:41 44.4 °F 43.9 °F 30.13 in Calm   1.0 mph 98 % 0.00 in
06:43 44.6 °F 44.1 °F 30.13 in NW 1.0 mph 1.0 mph 98 % 0.00 in
06:45 44.6 °F 44.1 °F 30.13 in NW 1.0 mph 1.0 mph 98 % 0.00 in
06:46 44.6 °F 44.1 °F 30.13 in Calm   1.0 mph 98 % 0.00 in
06:47 44.8 °F 44.2 °F 30.13 in Calm   1.0 mph 98 % 0.00 in
06:51 45.0 °F 44.4 °F 30.13 in Calm   2.0 mph 98 % 0.00 in
06:52 45.0 °F 44.4 °F 30.13 in NNE 1.0 mph 2.0 mph 98 % 0.00 in
06:53 45.0 °F 44.4 °F 30.13 in Calm   2.0 mph 98 % 0.00 in
06:54 45.1 °F 44.6 °F 30.13 in Calm   2.0 mph 98 % 0.00 in
06:55 45.1 °F 44.6 °F 30.13 in Calm   2.0 mph 98 % 0.00 in
06:56 45.1 °F 44.6 °F 30.13 in Calm   2.0 mph 98 % 0.00 in
06:57 45.1 °F 44.6 °F 30.13 in Calm   2.0 mph 98 % 0.00 in
06:58 45.3 °F 44.8 °F 30.13 in NNW 1.0 mph 2.0 mph 98 % 0.00 in
06:59 45.3 °F 44.8 °F 30.13 in Calm   2.0 mph 98 % 0.00 in
07:00 45.3 °F 44.8 °F 30.14 in NW 1.0 mph 4.0 mph 98 % 0.00 in
07:01 45.3 °F 44.8 °F 30.14 in NNW 3.0 mph 4.0 mph 98 % 0.00 in
07:02 45.5 °F 45.0 °F 30.14 in NNW 3.0 mph 4.0 mph 98 % 0.00 in
07:03 45.5 °F 45.0 °F 30.14 in East 2.0 mph 4.0 mph 98 % 0.00 in
07:04 45.7 °F 45.1 °F 30.14 in North 2.0 mph 4.0 mph 98 % 0.00 in
07:05 45.7 °F 45.1 °F 30.14 in Calm   6.0 mph 98 % 0.00 in
07:06 45.7 °F 45.1 °F 30.14 in NW 1.0 mph 6.0 mph 98 % 0.00 in
07:07 45.7 °F 45.1 °F 30.14 in North 3.0 mph 6.0 mph 98 % 0.00 in
07:11 45.7 °F 45.1 °F 30.14 in NNE 5.0 mph 6.0 mph 98 % 0.00 in
07:13 45.7 °F 45.1 °F 30.14 in East 3.0 mph 6.0 mph 98 % 0.00 in
07:15 45.7 °F 45.1 °F 30.14 in NNW 1.0 mph 6.0 mph 98 % 0.00 in
07:16 45.7 °F 45.1 °F 30.14 in NNW 3.0 mph 6.0 mph 98 % 0.00 in
07:17 45.7 °F 45.1 °F 30.14 in North 3.0 mph 6.0 mph 98 % 0.00 in
07:18 45.7 °F 45.1 °F 30.14 in ENE 3.0 mph 6.0 mph 98 % 0.00 in
07:19 45.7 °F 45.1 °F 30.14 in NE 1.0 mph 6.0 mph 98 % 0.00 in
07:20 45.7 °F 45.1 °F 30.14 in East 1.0 mph 6.0 mph 98 % 0.00 in
07:21 45.7 °F 45.1 °F 30.14 in Calm   6.0 mph 98 % 0.00 in
07:22 45.9 °F 45.3 °F 30.14 in NNW 3.0 mph 6.0 mph 98 % 0.00 in
07:24 45.7 °F 45.1 °F 30.14 in NE 1.0 mph 6.0 mph 98 % 0.00 in
07:27 45.9 °F 45.3 °F 30.14 in NNW 1.0 mph 6.0 mph 98 % 0.00 in
07:28 45.9 °F 45.3 °F 30.14 in North 3.0 mph 6.0 mph 98 % 0.00 in
07:29 45.9 °F 45.3 °F 30.14 in NNE 3.0 mph 6.0 mph 98 % 0.00 in
07:30 45.9 °F 45.3 °F 30.14 in Calm   5.0 mph 98 % 0.00 in
07:33 45.9 °F 45.3 °F 30.14 in NE 1.0 mph 5.0 mph 98 % 0.00 in
07:34 45.9 °F 45.3 °F 30.14 in Calm   5.0 mph 98 % 0.00 in
07:35 45.9 °F 45.3 °F 30.14 in Calm   5.0 mph 98 % 0.00 in
07:37 45.9 °F 45.1 °F 30.14 in Calm   5.0 mph 97 % 0.00 in
07:38 45.9 °F 45.1 °F 30.15 in Calm   5.0 mph 97 % 0.00 in
07:40 45.9 °F 45.1 °F 30.15 in Calm   4.0 mph 97 % 0.00 in
07:41 45.9 °F 45.1 °F 30.15 in North 1.0 mph 4.0 mph 97 % 0.00 in
07:42 45.9 °F 45.1 °F 30.15 in Calm   4.0 mph 97 % 0.00 in
07:43 45.9 °F 45.1 °F 30.15 in NNW 1.0 mph 4.0 mph 97 % 0.00 in
07:45 45.9 °F 45.1 °F 30.15 in NNE 4.0 mph 4.0 mph 97 % 0.00 in
07:46 45.9 °F 45.1 °F 30.15 in NNE 2.0 mph 4.0 mph 97 % 0.00 in
07:47 45.9 °F 45.1 °F 30.15 in WNW 1.0 mph 4.0 mph 97 % 0.00 in
07:49 45.9 °F 45.1 °F 30.15 in NNE 3.0 mph 4.0 mph 97 % 0.00 in
07:50 45.9 °F 45.1 °F 30.15 in North 3.0 mph 5.0 mph 97 % 0.00 in
07:52 45.9 °F 45.1 °F 30.16 in North 1.0 mph 5.0 mph 97 % 0.00 in
07:54 45.9 °F 45.1 °F 30.16 in NW 4.0 mph 5.0 mph 97 % 0.00 in
07:55 45.9 °F 45.1 °F 30.15 in ENE 2.0 mph 5.0 mph 97 % 0.00 in
07:56 45.9 °F 45.1 °F 30.16 in Calm   5.0 mph 97 % 0.00 in
07:57 45.9 °F 45.1 °F 30.16 in NW 1.0 mph 5.0 mph 97 % 0.00 in
08:02 46.0 °F 45.3 °F 30.16 in Calm   5.0 mph 97 % 0.00 in
08:05 46.0 °F 45.3 °F 30.16 in NW 2.0 mph 5.0 mph 97 % 0.00 in
08:07 46.2 °F 45.5 °F 30.16 in NW 1.0 mph 5.0 mph 97 % 0.00 in
08:08 46.2 °F 45.5 °F 30.16 in NNE 2.0 mph 5.0 mph 97 % 0.00 in
08:10 46.2 °F 45.5 °F 30.16 in NNW 1.0 mph 5.0 mph 97 % 0.00 in
08:11 46.2 °F 45.5 °F 30.17 in North 2.0 mph 5.0 mph 97 % 0.00 in
08:12 46.2 °F 45.5 °F 30.17 in North 2.0 mph 5.0 mph 97 % 0.00 in
08:14 46.2 °F 45.5 °F 30.17 in Calm   5.0 mph 97 % 0.00 in
08:16 46.2 °F 45.5 °F 30.17 in Calm   6.0 mph 97 % 0.00 in
08:17 46.2 °F 45.5 °F 30.17 in Calm   6.0 mph 97 % 0.00 in
08:18 46.2 °F 45.5 °F 30.17 in NNE 2.0 mph 6.0 mph 97 % 0.00 in
08:19 46.2 °F 45.5 °F 30.17 in ENE 1.0 mph 6.0 mph 97 % 0.00 in
08:20 46.4 °F 45.3 °F 30.17 in Calm   6.0 mph 96 % 0.00 in
08:21 46.2 °F 45.1 °F 30.17 in NNW 2.0 mph 6.0 mph 96 % 0.00 in
08:22 46.4 °F 45.3 °F 30.17 in NE 4.0 mph 6.0 mph 96 % 0.00 in
08:23 46.2 °F 45.1 °F 30.17 in NNW 2.0 mph 6.0 mph 96 % 0.00 in
08:24 46.2 °F 45.1 °F 30.17 in Calm   6.0 mph 96 % 0.00 in
08:25 46.2 °F 45.1 °F 30.17 in Calm   7.0 mph 96 % 0.00 in
08:26 46.4 °F 45.3 °F 30.17 in Calm   7.0 mph 96 % 0.00 in
08:27 46.4 °F 45.3 °F 30.17 in ENE 2.0 mph 7.0 mph 96 % 0.00 in
08:28 46.4 °F 45.3 °F 30.17 in Calm   7.0 mph 96 % 0.00 in
08:29 46.4 °F 45.3 °F 30.17 in Calm   7.0 mph 96 % 0.00 in
08:30 46.4 °F 45.3 °F 30.17 in WNW 1.0 mph 7.0 mph 96 % 0.00 in
08:32 46.6 °F 45.5 °F 30.17 in Calm   7.0 mph 96 % 0.00 in
08:34 46.6 °F 45.5 °F 30.16 in North 3.0 mph 7.0 mph 96 % 0.00 in
08:35 46.6 °F 45.5 °F 30.16 in NNE 4.0 mph 7.0 mph 96 % 0.00 in
08:36 46.6 °F 45.5 °F 30.16 in NNE 1.0 mph 7.0 mph 96 % 0.00 in
08:42 46.8 °F 45.7 °F 30.17 in Calm   7.0 mph 96 % 0.00 in
08:44 46.8 °F 45.7 °F 30.16 in East 1.0 mph 7.0 mph 96 % 0.00 in
08:45 46.8 °F 45.7 °F 30.16 in Calm   7.0 mph 96 % 0.00 in
08:46 46.8 °F 45.7 °F 30.16 in Calm   7.0 mph 96 % 0.00 in
08:49 46.9 °F 45.9 °F 30.16 in NNW 2.0 mph 7.0 mph 96 % 0.00 in
08:51 46.9 °F 45.9 °F 30.16 in NW 2.0 mph 6.0 mph 96 % 0.00 in
08:52 46.9 °F 45.9 °F 30.16 in East 1.0 mph 6.0 mph 96 % 0.00 in
08:53 46.9 °F 45.9 °F 30.16 in Calm   6.0 mph 96 % 0.00 in
08:54 46.9 °F 45.9 °F 30.16 in ENE 1.0 mph 6.0 mph 96 % 0.00 in
08:55 46.9 °F 45.9 °F 30.16 in Calm   4.0 mph 96 % 0.00 in
08:56 46.9 °F 45.9 °F 30.16 in Calm   4.0 mph 96 % 0.00 in
08:57 46.9 °F 45.9 °F 30.16 in ENE 3.0 mph 4.0 mph 96 % 0.00 in
09:00 46.9 °F 45.9 °F 30.17 in ENE 2.0 mph 7.0 mph 96 % 0.00 in
09:01 46.9 °F 45.9 °F 30.17 in NNE 3.0 mph 7.0 mph 96 % 0.00 in
09:04 46.9 °F 45.5 °F 30.16 in NNE 1.0 mph 7.0 mph 95 % 0.00 in
09:05 46.9 °F 45.5 °F 30.16 in NNW 3.0 mph 7.0 mph 95 % 0.00 in
09:06 46.9 °F 45.9 °F 30.16 in NNE 2.0 mph 7.0 mph 96 % 0.00 in
09:07 46.9 °F 45.9 °F 30.16 in Calm   7.0 mph 96 % 0.00 in
09:08 46.9 °F 45.9 °F 30.16 in ENE 2.0 mph 7.0 mph 96 % 0.00 in
09:09 46.9 °F 45.9 °F 30.16 in NE 2.0 mph 7.0 mph 96 % 0.00 in
09:10 46.9 °F 45.9 °F 30.16 in Calm   7.0 mph 96 % 0.00 in
09:12 47.1 °F 46.0 °F 30.17 in NNE 2.0 mph 7.0 mph 96 % 0.00 in
09:14 47.1 °F 46.0 °F 30.17 in NE 1.0 mph 7.0 mph 96 % 0.00 in
09:15 47.1 °F 46.0 °F 30.17 in North 1.0 mph 7.0 mph 96 % 0.00 in
09:16 47.1 °F 46.0 °F 30.17 in NNW 1.0 mph 6.0 mph 96 % 0.00 in
09:17 47.1 °F 46.0 °F 30.17 in NNE 1.0 mph 6.0 mph 96 % 0.00 in
09:19 47.1 °F 46.0 °F 30.17 in Calm   6.0 mph 96 % 0.00 in
09:20 47.1 °F 46.0 °F 30.17 in Calm   6.0 mph 96 % 0.00 in
09:21 47.1 °F 46.0 °F 30.17 in East 4.0 mph 6.0 mph 96 % 0.00 in
09:22 47.1 °F 46.0 °F 30.17 in ENE 4.0 mph 6.0 mph 96 % 0.00 in
09:24 47.1 °F 45.7 °F 30.17 in East 1.0 mph 6.0 mph 95 % 0.00 in
09:25 47.1 °F 46.0 °F 30.17 in North 2.0 mph 7.0 mph 96 % 0.00 in
09:28 47.1 °F 46.0 °F 30.17 in NE 1.0 mph 7.0 mph 96 % 0.00 in
09:29 47.1 °F 46.0 °F 30.17 in ENE 1.0 mph 7.0 mph 96 % 0.00 in
09:30 47.1 °F 46.0 °F 30.17 in North 1.0 mph 7.0 mph 96 % 0.00 in
09:32 47.1 °F 46.0 °F 30.17 in Calm   7.0 mph 96 % 0.00 in
09:35 47.3 °F 46.2 °F 30.17 in North 2.0 mph 7.0 mph 96 % 0.00 in
09:36 47.5 °F 46.4 °F 30.17 in East 2.0 mph 7.0 mph 96 % 0.00 in
09:37 47.5 °F 46.4 °F 30.17 in SE 4.0 mph 7.0 mph 96 % 0.00 in
09:38 47.5 °F 46.4 °F 30.17 in NE 2.0 mph 7.0 mph 96 % 0.00 in
09:39 47.5 °F 46.4 °F 30.17 in NE 2.0 mph 7.0 mph 96 % 0.00 in
09:40 47.5 °F 46.4 °F 30.17 in NE 4.0 mph 9.0 mph 96 % 0.00 in
09:41 47.5 °F 46.4 °F 30.17 in ENE 3.0 mph 9.0 mph 96 % 0.00 in
09:42 47.5 °F 46.4 °F 30.17 in ENE 1.0 mph 9.0 mph 96 % 0.00 in
09:43 47.5 °F 46.4 °F 30.17 in Calm   9.0 mph 96 % 0.00 in
09:45 47.5 °F 46.4 °F 30.17 in Calm   9.0 mph 96 % 0.00 in
09:46 47.5 °F 46.4 °F 30.17 in East 2.0 mph 9.0 mph 96 % 0.00 in
09:48 47.5 °F 46.4 °F 30.17 in Calm   9.0 mph 96 % 0.00 in
09:49 47.5 °F 46.4 °F 30.17 in ESE 1.0 mph 9.0 mph 96 % 0.00 in
09:53 47.7 °F 46.6 °F 30.17 in ENE 1.0 mph 9.0 mph 96 % 0.00 in
09:54 47.7 °F 46.6 °F 30.17 in Calm   9.0 mph 96 % 0.00 in
09:55 47.7 °F 46.6 °F 30.17 in Calm   9.0 mph 96 % 0.00 in
09:56 47.7 °F 46.6 °F 30.17 in East 1.0 mph 6.0 mph 96 % 0.00 in
09:57 47.7 °F 46.6 °F 30.17 in ENE 1.0 mph 6.0 mph 96 % 0.00 in
09:58 47.7 °F 46.6 °F 30.17 in Calm   6.0 mph 96 % 0.00 in
09:59 47.7 °F 46.6 °F 30.17 in ENE 1.0 mph 6.0 mph 96 % 0.00 in
10:00 47.7 °F 46.6 °F 30.17 in Calm   4.0 mph 96 % 0.00 in
10:03 47.8 °F 46.8 °F 30.17 in Calm   4.0 mph 96 % 0.00 in
10:04 47.8 °F 46.8 °F 30.17 in East 2.0 mph 4.0 mph 96 % 0.00 in
10:05 47.8 °F 46.8 °F 30.17 in SSE 2.0 mph 4.0 mph 96 % 0.00 in
10:08 48.0 °F 46.9 °F 30.17 in NE 1.0 mph 4.0 mph 96 % 0.00 in
10:09 48.0 °F 46.9 °F 30.17 in East 1.0 mph 4.0 mph 96 % 0.00 in
10:11 48.0 °F 46.9 °F 30.17 in NE 2.0 mph 4.0 mph 96 % 0.00 in
10:12 48.0 °F 46.9 °F 30.17 in Calm   4.0 mph 96 % 0.00 in
10:14 47.8 °F 46.8 °F 30.17 in East 2.0 mph 4.0 mph 96 % 0.00 in
10:16 47.8 °F 46.4 °F 30.17 in SSE 1.0 mph 4.0 mph 95 % 0.00 in
10:18 47.8 °F 46.8 °F 30.18 in Calm   4.0 mph 96 % 0.00 in
10:19 47.8 °F 46.4 °F 30.18 in Calm   4.0 mph 95 % 0.00 in
10:20 48.0 °F 46.9 °F 30.18 in ESE 2.0 mph 4.0 mph 96 % 0.00 in
10:21 47.8 °F 46.8 °F 30.18 in SE 1.0 mph 4.0 mph 96 % 0.00 in
10:22 47.8 °F 46.8 °F 30.18 in Calm   4.0 mph 96 % 0.00 in
10:24 48.0 °F 46.9 °F 30.18 in Calm   4.0 mph 96 % 0.00 in
10:25 48.0 °F 46.9 °F 30.18 in Calm   4.0 mph 96 % 0.00 in
10:26 48.0 °F 46.9 °F 30.18 in Calm   4.0 mph 96 % 0.00 in
10:29 48.2 °F 47.1 °F 30.18 in Calm   4.0 mph 96 % 0.00 in
10:33 48.4 °F 47.3 °F 30.18 in NNE 5.0 mph 5.0 mph 96 % 0.00 in
10:34 48.2 °F 46.8 °F 30.18 in Calm   3.0 mph 95 % 0.00 in
10:38 48.0 °F 46.6 °F 30.18 in East 2.0 mph 5.0 mph 95 % 0.00 in
10:39 48.0 °F 46.6 °F 30.18 in East 2.0 mph 5.0 mph 95 % 0.00 in
10:40 48.0 °F 46.6 °F 30.18 in Calm   5.0 mph 95 % 0.00 in
10:42 48.0 °F 46.6 °F 30.18 in Calm   5.0 mph 95 % 0.00 in
10:43 48.0 °F 46.6 °F 30.18 in Calm   5.0 mph 95 % 0.00 in
10:44 48.2 °F 46.8 °F 30.19 in North 1.0 mph 5.0 mph 95 % 0.00 in
10:46 48.4 °F 46.9 °F 30.19 in East 2.0 mph 5.0 mph 95 % 0.00 in
10:47 48.4 °F 46.9 °F 30.19 in Calm   5.0 mph 95 % 0.00 in
10:50 48.4 °F 46.9 °F 30.19 in Calm   5.0 mph 95 % 0.00 in
10:51 48.4 °F 46.9 °F 30.19 in Calm   5.0 mph 95 % 0.00 in
10:52 48.4 °F 46.9 °F 30.18 in Calm   5.0 mph 95 % 0.00 in
10:54 48.6 °F 47.1 °F 30.18 in NE 1.0 mph 5.0 mph 95 % 0.00 in
10:55 48.6 °F 47.1 °F 30.18 in ENE 2.0 mph 5.0 mph 95 % 0.00 in
10:56 48.4 °F 46.9 °F 30.18 in SE 2.0 mph 5.0 mph 95 % 0.00 in
10:57 48.4 °F 46.9 °F 30.18 in ESE 1.0 mph 5.0 mph 95 % 0.00 in
10:58 48.6 °F 47.1 °F 30.18 in SE 1.0 mph 5.0 mph 95 % 0.00 in
11:00 48.6 °F 47.1 °F 30.18 in East 5.0 mph 5.0 mph 95 % 0.00 in
11:02 48.4 °F 46.8 °F 30.17 in SE 1.0 mph 5.0 mph 94 % 0.00 in
11:03 48.4 °F 46.8 °F 30.17 in SE 1.0 mph 5.0 mph 94 % 0.00 in
11:05 48.4 °F 46.9 °F 30.17 in Calm   5.0 mph 95 % 0.00 in
11:06 48.4 °F 46.9 °F 30.17 in ENE 3.0 mph 5.0 mph 95 % 0.00 in
11:07 48.4 °F 46.9 °F 30.17 in North 1.0 mph 5.0 mph 95 % 0.00 in
11:08 48.4 °F 46.9 °F 30.17 in Calm   5.0 mph 95 % 0.00 in
11:11 48.4 °F 46.9 °F 30.17 in ESE 1.0 mph 5.0 mph 95 % 0.00 in
11:12 48.4 °F 46.9 °F 30.17 in SSE 1.0 mph 5.0 mph 95 % 0.00 in
11:13 48.6 °F 47.1 °F 30.17 in ESE 1.0 mph 5.0 mph 95 % 0.00 in
11:14 48.6 °F 47.1 °F 30.17 in SE 2.0 mph 5.0 mph 95 % 0.00 in
11:15 48.6 °F 47.1 °F 30.16 in Calm   5.0 mph 95 % 0.00 in
11:16 48.6 °F 47.1 °F 30.16 in East 1.0 mph 5.0 mph 95 % 0.00 in
11:18 48.6 °F 47.1 °F 30.17 in NNE 1.0 mph 5.0 mph 95 % 0.00 in
11:19 48.6 °F 47.1 °F 30.16 in ENE 1.0 mph 5.0 mph 95 % 0.00 in
11:22 48.7 °F 47.3 °F 30.16 in Calm   4.0 mph 95 % 0.00 in
11:23 48.7 °F 47.3 °F 30.16 in North 1.0 mph 4.0 mph 95 % 0.00 in
11:24 48.7 °F 47.3 °F 30.16 in Calm   4.0 mph 95 % 0.00 in
11:27 48.7 °F 47.1 °F 30.16 in ESE 2.0 mph 3.0 mph 94 % 0.00 in
11:30 48.7 °F 47.1 °F 30.16 in Calm   3.0 mph 94 % 0.00 in
11:31 48.7 °F 47.1 °F 30.16 in NNW 1.0 mph 3.0 mph 94 % 0.00 in
11:32 48.7 °F 47.1 °F 30.16 in Calm   3.0 mph 94 % 0.00 in
11:33 48.7 °F 47.1 °F 30.16 in Calm   3.0 mph 94 % 0.00 in
11:41 49.3 °F 47.7 °F 30.15 in ENE 1.0 mph 3.0 mph 94 % 0.00 in
11:43 49.3 °F 47.7 °F 30.15 in Calm   3.0 mph 94 % 0.00 in
11:47 49.5 °F 47.8 °F 30.15 in Calm   3.0 mph 94 % 0.00 in
11:54 49.8 °F 47.8 °F 30.15 in Calm   3.0 mph 93 % 0.00 in
11:57 49.8 °F 47.8 °F 30.14 in Calm   2.0 mph 93 % 0.00 in
12:01 50.0 °F 48.0 °F 30.14 in Calm   2.0 mph 93 % 0.00 in
12:14 50.0 °F 47.8 °F 30.13 in Calm   4.0 mph 92 % 0.00 in
12:22 50.4 °F 48.4 °F 30.13 in North 1.0 mph 4.0 mph 93 % 0.00 in
12:23 50.4 °F 48.2 °F 30.13 in Calm   4.0 mph 92 % 0.00 in
12:24 50.4 °F 48.2 °F 30.13 in ENE 1.0 mph 4.0 mph 92 % 0.00 in
12:27 50.4 °F 48.2 °F 30.13 in Calm   3.0 mph 92 % 0.00 in
12:30 50.4 °F 48.2 °F 30.12 in NNE 1.0 mph 3.0 mph 92 % 0.00 in
12:32 50.4 °F 48.2 °F 30.12 in SSW 2.0 mph 3.0 mph 92 % 0.00 in
12:35 50.4 °F 48.2 °F 30.12 in SSW 2.0 mph 3.0 mph 92 % 0.00 in
12:36 50.4 °F 48.2 °F 30.12 in SE 1.0 mph 3.0 mph 92 % 0.00 in
12:37 50.5 °F 48.4 °F 30.12 in East 2.0 mph 3.0 mph 92 % 0.00 in
12:39 50.5 °F 48.4 °F 30.12 in Calm   3.0 mph 92 % 0.00 in
12:42 50.7 °F 48.6 °F 30.12 in Calm   3.0 mph 92 % 0.00 in
12:43 50.7 °F 48.6 °F 30.12 in NW 1.0 mph 3.0 mph 92 % 0.00 in
12:44 50.7 °F 48.2 °F 30.12 in ENE 1.0 mph 3.0 mph 91 % 0.00 in
12:45 50.7 °F 48.6 °F 30.12 in Calm   4.0 mph 92 % 0.00 in
12:47 50.7 °F 48.6 °F 30.12 in Calm   4.0 mph 92 % 0.00 in
12:53 50.9 °F 48.4 °F 30.12 in NNE 1.0 mph 4.0 mph 91 % 0.00 in
12:54 50.9 °F 48.4 °F 30.12 in Calm   4.0 mph 91 % 0.00 in
12:55 50.9 °F 48.4 °F 30.12 in Calm   4.0 mph 91 % 0.00 in
13:00 51.1 °F 48.6 °F 30.12 in Calm   3.0 mph 91 % 0.00 in
13:05 51.1 °F 48.6 °F 30.12 in NNW 2.0 mph 3.0 mph 91 % 0.00 in
13:07 51.1 °F 48.2 °F 30.11 in North 1.0 mph 3.0 mph 90 % 0.00 in
13:12 50.9 °F 48.4 °F 30.11 in North 1.0 mph 3.0 mph 91 % 0.00 in
13:17 50.9 °F 48.4 °F 30.11 in Calm   3.0 mph 91 % 0.00 in
13:22 51.1 °F 48.6 °F 30.11 in Calm   2.0 mph 91 % 0.00 in
13:27 51.3 °F 48.4 °F 30.10 in Calm   2.0 mph 90 % 0.00 in
13:33 51.4 °F 48.9 °F 30.10 in Calm   1.0 mph 91 % 0.00 in
13:43 51.4 °F 48.6 °F 30.09 in ESE 1.0 mph 2.0 mph 90 % 0.00 in
13:48 51.4 °F 48.6 °F 30.09 in SE 1.0 mph 2.0 mph 90 % 0.00 in
13:53 51.6 °F 48.7 °F 30.09 in NNW 1.0 mph 2.0 mph 90 % 0.00 in
13:58 51.4 °F 48.6 °F 30.09 in Calm   2.0 mph 90 % 0.00 in
14:03 51.6 °F 48.7 °F 30.09 in Calm   2.0 mph 90 % 0.00 in
14:08 51.6 °F 48.7 °F 30.08 in Calm   2.0 mph 90 % 0.00 in
14:11 51.6 °F 48.7 °F 30.08 in Calm   2.0 mph 90 % 0.00 in
14:18 51.8 °F 48.9 °F 30.08 in North 1.0 mph 2.0 mph 90 % 0.00 in
14:23 51.8 °F 48.9 °F 30.08 in SE 1.0 mph 2.0 mph 90 % 0.00 in
14:26 51.8 °F 48.9 °F 30.08 in Calm   3.0 mph 90 % 0.00 in
14:35 52.0 °F 49.1 °F 30.09 in SSW 2.0 mph 3.0 mph 90 % 0.00 in
14:36 52.0 °F 49.1 °F 30.08 in SSE 1.0 mph 3.0 mph 90 % 0.00 in
14:37 52.0 °F 49.1 °F 30.08 in SE 1.0 mph 3.0 mph 90 % 0.00 in
14:40 52.0 °F 49.1 °F 30.08 in Calm   2.0 mph 90 % 0.00 in
14:43 52.2 °F 49.3 °F 30.08 in Calm   2.0 mph 90 % 0.00 in
14:48 52.2 °F 49.1 °F 30.08 in Calm   3.0 mph 89 % 0.00 in
14:53 52.2 °F 49.1 °F 30.08 in North 1.0 mph 3.0 mph 89 % 0.00 in
14:55 52.0 °F 48.9 °F 30.08 in Calm   3.0 mph 89 % 0.00 in
14:57 52.0 °F 48.9 °F 30.08 in Calm   3.0 mph 89 % 0.00 in
15:04 52.2 °F 49.3 °F 30.08 in Calm   3.0 mph 90 % 0.00 in
15:05 52.2 °F 49.1 °F 30.08 in North 1.0 mph 3.0 mph 89 % 0.00 in
15:09 52.2 °F 49.1 °F 30.07 in Calm   2.0 mph 89 % 0.00 in
15:14 52.2 °F 49.1 °F 30.07 in East 1.0 mph 2.0 mph 89 % 0.00 in
15:17 52.2 °F 49.1 °F 30.07 in North 2.0 mph 3.0 mph 89 % 0.00 in
15:22 52.2 °F 49.3 °F 30.07 in ENE 1.0 mph 3.0 mph 90 % 0.00 in
15:29 52.2 °F 49.3 °F 30.07 in Calm   3.0 mph 90 % 0.00 in
15:30 52.2 °F 49.3 °F 30.07 in North 1.0 mph 3.0 mph 90 % 0.00 in
15:37 52.2 °F 49.3 °F 30.07 in NE 2.0 mph 4.0 mph 90 % 0.00 in
15:39 52.2 °F 49.3 °F 30.07 in East 1.0 mph 4.0 mph 90 % 0.00 in
15:42 52.2 °F 49.3 °F 30.07 in Calm   4.0 mph 90 % 0.00 in
15:45 52.2 °F 49.3 °F 30.07 in Calm   4.0 mph 90 % 0.00 in
15:48 52.2 °F 49.3 °F 30.07 in Calm   4.0 mph 90 % 0.00 in
15:53 52.3 °F 49.5 °F 30.06 in Calm   3.0 mph 90 % 0.00 in
15:58 52.3 °F 49.5 °F 30.06 in NNE 2.0 mph 3.0 mph 90 % 0.00 in
16:02 52.3 °F 49.5 °F 30.06 in Calm   4.0 mph 90 % 0.00 in
16:08 52.3 °F 49.5 °F 30.06 in SE 1.0 mph 4.0 mph 90 % 0.00 in
16:15 52.2 °F 49.1 °F 30.07 in SE 1.0 mph 4.0 mph 89 % 0.00 in
16:17 52.2 °F 49.3 °F 30.07 in Calm   4.0 mph 90 % 0.00 in
16:22 52.0 °F 49.1 °F 30.07 in SE 1.0 mph 4.0 mph 90 % 0.00 in
16:27 51.8 °F 48.9 °F 30.07 in Calm   5.0 mph 90 % 0.00 in
16:28 51.8 °F 48.9 °F 30.07 in Calm   5.0 mph 90 % 0.00 in
16:33 51.8 °F 48.9 °F 30.07 in Calm   5.0 mph 90 % 0.00 in
16:37 51.8 °F 49.3 °F 30.07 in South 3.0 mph 5.0 mph 91 % 0.00 in
16:42 51.8 °F 49.3 °F 30.07 in SSE 2.0 mph 3.0 mph 91 % 0.00 in
16:43 51.8 °F 49.3 °F 30.07 in SE 3.0 mph 3.0 mph 91 % 0.00 in
16:47 51.8 °F 49.3 °F 30.06 in ESE 1.0 mph 4.0 mph 91 % 0.00 in
16:48 51.8 °F 49.3 °F 30.06 in SE 1.0 mph 4.0 mph 91 % 0.00 in
16:54 51.8 °F 49.3 °F 30.06 in SSW 2.0 mph 4.0 mph 91 % 0.00 in
16:57 51.8 °F 49.3 °F 30.06 in ESE 1.0 mph 4.0 mph 91 % 0.00 in
16:58 51.6 °F 49.1 °F 30.06 in SE 1.0 mph 4.0 mph 91 % 0.00 in
17:04 51.6 °F 49.1 °F 30.06 in ESE 2.0 mph 4.0 mph 91 % 0.00 in
17:06 51.6 °F 49.1 °F 30.06 in East 1.0 mph 4.0 mph 91 % 0.00 in
17:08 51.8 °F 49.3 °F 30.06 in ESE 1.0 mph 4.0 mph 91 % 0.00 in
17:09 51.6 °F 49.1 °F 30.06 in ESE 1.0 mph 4.0 mph 91 % 0.00 in
17:11 51.6 °F 49.1 °F 30.06 in Calm   3.0 mph 91 % 0.00 in
17:18 51.6 °F 49.1 °F 30.06 in SSE 2.0 mph 3.0 mph 91 % 0.00 in
17:26 51.6 °F 49.1 °F 30.06 in East 1.0 mph 4.0 mph 91 % 0.00 in
17:27 51.6 °F 49.1 °F 30.06 in Calm   4.0 mph 91 % 0.00 in
17:32 51.6 °F 49.5 °F 30.07 in ESE 1.0 mph 4.0 mph 92 % 0.00 in
17:43 51.6 °F 49.5 °F 30.07 in Calm   3.0 mph 92 % 0.00 in
19:23 52.0 °F 49.6 °F 30.08 in Calm   4.0 mph 92 % 0.00 in
Spring, Texas: Villages of Bridgestone
Compliments of Weather Underground - 4.25 mb

Script developed by  Jim McMurry - jmcmurry@mwt.net Adapted for the template by  Wim van der Kuil - Leuven-Template.eu

You find our weather info also at:

UK Metoffice

WeatherCloud

Weather Underground

Mid-South Weather Network

AWEKAS

Citizen Weather Observer Program (CWOP)

HAMweather, WeatherForYou, PWS Weather

Equipment we use:

Weather-station
Davis Vantage Vue

Weather-program
Meteohub

Weather-server
Debian 7.9 x86 (Guest)

Provider
DreamHost

Davis Vantage Vue

Meteohub

Debian 7.9 x86 (Guest)

DreamHost